Time;durP1;ratioP1;P1;durP2;ratioP2;P2;SDS_P1;SDS_P2;PMS_P1;PMS_P2;Temp;Humidity;BMP_temperature;BMP_pressure;BME280_temperature;BME280_humidity;BME280_pressure;Samples;Min_cycle;Max_cycle;Signal;HPM_P1;HPM_P2
2020/12/21 00:02:00;;;;;;;1999.90;999.90;;;7.20;99.90;;;;;;5115953;28;20059;-90
2020/12/21 00:04:27;;;;;;;1999.90;999.90;;;7.20;99.90;;;;;;5115716;28;20039;-89
2020/12/21 00:06:55;;;;;;;1999.90;999.90;;;7.20;99.90;;;;;;5120095;27;20054;-89
2020/12/21 00:09:23;;;;;;;1999.90;999.90;;;7.20;99.90;;;;;;5115699;28;20051;-89
2020/12/21 00:11:52;;;;;;;1999.90;999.90;;;7.20;99.90;;;;;;5116001;28;20101;-89
2020/12/21 00:14:20;;;;;;;1999.90;999.90;;;7.20;99.90;;;;;;5129815;27;20063;-89
2020/12/21 00:16:48;;;;;;;1999.90;999.90;;;7.20;99.90;;;;;;5115371;28;20051;-89
2020/12/21 00:19:18;;;;;;;1999.90;999.90;;;7.20;99.90;;;;;;5113672;28;20076;-89
2020/12/21 00:21:48;;;;;;;1999.90;999.90;;;7.20;99.90;;;;;;5105933;28;20079;-89
2020/12/21 00:24:15;;;;;;;1999.90;999.90;;;7.20;99.90;;;;;;5111894;27;20126;-89
2020/12/21 00:26:45;;;;;;;1999.90;999.90;;;7.20;99.90;;;;;;5127616;27;20537;-90
2020/12/21 00:29:13;;;;;;;1999.90;999.90;;;7.20;99.90;;;;;;5115833;28;20063;-90
2020/12/21 00:31:42;;;;;;;1999.90;999.90;;;7.10;99.90;;;;;;5115696;28;20478;-89
2020/12/21 00:34:10;;;;;;;1999.90;999.90;;;7.10;99.90;;;;;;5115576;28;20126;-89
2020/12/21 00:36:40;;;;;;;1999.90;999.90;;;7.10;99.90;;;;;;5115680;28;20922;-90
2020/12/21 00:39:09;;;;;;;1999.90;999.90;;;7.10;99.90;;;;;;5115887;28;20375;-89
2020/12/21 00:41:36;;;;;;;1999.90;999.90;;;7.10;99.90;;;;;;5116032;28;20143;-89
2020/12/21 00:44:04;;;;;;;1999.90;999.90;;;7.10;99.90;;;;;;5115610;28;20075;-90
2020/12/21 00:46:33;;;;;;;1999.90;999.90;;;7.10;99.90;;;;;;5125746;27;20055;-89
2020/12/21 00:49:01;;;;;;;1999.90;999.90;;;7.10;99.90;;;;;;5104420;28;20058;-90
2020/12/21 00:51:29;;;;;;;1999.90;999.90;;;7.10;99.90;;;;;;5113453;28;20047;-89
2020/12/21 00:53:58;;;;;;;1999.90;999.90;;;7.10;99.90;;;;;;5115288;28;20056;-90
2020/12/21 00:56:26;;;;;;;1999.90;999.90;;;7.10;99.90;;;;;;5115240;28;20057;-89
2020/12/21 00:58:53;;;;;;;1999.90;999.90;;;7.10;99.90;;;;;;5114659;28;20043;-89
2020/12/21 01:01:28;;;;;;;1999.90;999.90;;;7.10;99.90;;;;;;5115182;28;20085;-89
2020/12/21 01:04:01;;;;;;;1999.90;999.90;;;7.00;99.90;;;;;;5114355;28;20065;-89
2020/12/21 01:06:29;;;;;;;1999.90;999.90;;;7.00;99.90;;;;;;5114701;28;20571;-89
2020/12/21 01:08:57;;;;;;;1999.90;999.90;;;7.00;99.90;;;;;;5114114;28;20039;-90
2020/12/21 01:11:25;;;;;;;1999.90;999.90;;;7.00;99.90;;;;;;5115059;28;20048;-90
2020/12/21 01:13:52;;;;;;;1999.90;999.90;;;7.00;99.90;;;;;;5128067;27;20055;-89
2020/12/21 01:16:20;;;;;;;1999.90;999.90;;;7.00;99.90;;;;;;5100759;28;20101;-90
2020/12/21 01:18:48;;;;;;;1999.90;999.90;;;6.90;99.90;;;;;;5114319;27;20452;-90
2020/12/21 01:21:24;;;;;;;1999.90;999.90;;;6.90;99.90;;;;;;5119497;28;20050;-90
2020/12/21 01:23:51;;;;;;;1999.90;999.90;;;6.90;99.90;;;;;;5135469;28;20048;-88
2020/12/21 01:26:18;;;;;;;1999.90;999.90;;;6.90;99.90;;;;;;5130233;28;20074;-90
2020/12/21 01:28:47;;;;;;;1999.90;999.90;;;6.80;99.90;;;;;;5128995;27;20107;-90
2020/12/21 01:31:15;;;;;;;1999.90;999.90;;;6.80;99.90;;;;;;5114996;28;20104;-90
2020/12/21 01:33:42;;;;;;;1999.90;999.90;;;6.80;99.90;;;;;;5116554;27;20055;-90
2020/12/21 01:36:10;;;;;;;1999.90;999.90;;;6.80;99.90;;;;;;5127985;27;20498;-90
2020/12/21 01:38:38;;;;;;;1999.90;999.90;;;6.80;99.90;;;;;;5114103;28;20051;-90
2020/12/21 01:41:05;;;;;;;1999.90;999.90;;;6.80;99.90;;;;;;5118735;27;20082;-90
2020/12/21 01:43:33;;;;;;;1999.90;999.90;;;6.80;99.90;;;;;;5114165;28;20105;-90
2020/12/21 01:46:08;;;;;;;1999.90;999.90;;;6.80;99.90;;;;;;5113578;28;20124;-90
2020/12/21 01:48:36;;;;;;;1999.90;999.90;;;6.80;99.90;;;;;;5113981;28;20063;-90
2020/12/21 01:51:05;;;;;;;1999.90;999.90;;;6.80;99.90;;;;;;5120942;27;20079;-90
2020/12/21 01:53:35;;;;;;;1999.90;999.90;;;6.80;99.90;;;;;;5100476;28;20051;-89
2020/12/21 01:56:05;;;;;;;1999.90;999.90;;;6.80;99.90;;;;;;5123772;28;20130;-90
2020/12/21 01:58:32;;;;;;;1999.90;999.90;;;6.80;99.90;;;;;;5117010;28;20051;-90
2020/12/21 02:01:03;;;;;;;1999.90;999.90;;;6.80;99.90;;;;;;5113603;28;20083;-90
2020/12/21 02:03:33;;;;;;;1999.90;999.90;;;6.70;99.90;;;;;;5113721;28;20048;-90
2020/12/21 02:06:00;;;;;;;1999.90;999.90;;;6.70;99.90;;;;;;5102914;28;20082;-90
2020/12/21 02:08:28;;;;;;;1999.90;999.90;;;6.70;99.90;;;;;;5113729;28;20447;-89
2020/12/21 02:10:55;;;;;;;1999.90;999.90;;;6.70;99.90;;;;;;5115016;28;20059;-90
2020/12/21 02:13:24;;;;;;;1999.90;999.90;;;6.70;99.90;;;;;;5113740;28;20064;-90
2020/12/21 02:15:51;;;;;;;1999.90;999.90;;;6.70;99.90;;;;;;5113838;28;20048;-89
2020/12/21 02:18:20;;;;;;;1999.90;999.90;;;6.70;99.90;;;;;;5109379;28;20067;-90
2020/12/21 02:20:48;;;;;;;1999.90;999.90;;;6.70;99.90;;;;;;5114004;28;20043;-90
2020/12/21 02:23:16;;;;;;;1999.90;999.90;;;6.60;99.90;;;;;;5116048;28;20048;-90
2020/12/21 02:25:44;;;;;;;1999.90;999.90;;;6.60;99.90;;;;;;5117180;28;20048;-90
2020/12/21 02:28:11;;;;;;;1999.90;999.90;;;6.60;99.90;;;;;;5117820;28;20142;-90
2020/12/21 02:30:38;;;;;;;1999.90;999.90;;;6.60;99.90;;;;;;5117303;28;20138;-91
2020/12/21 02:33:06;;;;;;;1999.90;999.90;;;6.60;99.90;;;;;;5137163;27;20542;-90
2020/12/21 02:35:35;;;;;;;1999.90;999.90;;;6.60;99.90;;;;;;5124694;27;20044;-90
2020/12/21 02:38:06;;;;;;;1999.90;999.90;;;6.50;99.90;;;;;;5116871;28;20112;-90
2020/12/21 02:40:35;;;;;;;1999.90;999.90;;;6.50;99.90;;;;;;5117642;28;20395;-89
2020/12/21 02:43:18;;;;;;;1999.90;999.90;;;6.50;99.90;;;;;;5105607;27;20051;-90
2020/12/21 02:45:45;;;;;;;1999.90;999.90;;;6.50;99.90;;;;;;5117552;28;20127;-90
2020/12/21 02:48:12;;;;;;;1999.90;999.90;;;6.40;99.90;;;;;;5117143;28;20059;-90
2020/12/21 02:50:39;;;;;;;1999.90;999.90;;;6.50;99.90;;;;;;5124657;27;20086;-90
2020/12/21 02:53:07;;;;;;;1999.90;999.90;;;6.40;99.90;;;;;;5115243;28;20068;-91
2020/12/21 02:55:35;;;;;;;1999.90;999.90;;;6.50;99.90;;;;;;5117384;28;20044;-90
2020/12/21 02:58:03;;;;;;;1999.90;999.90;;;6.40;99.90;;;;;;5117100;28;20047;-90
2020/12/21 03:00:30;;;;;;;1999.90;999.90;;;6.40;99.90;;;;;;5117124;28;20056;-90
2020/12/21 03:02:57;;;;;;;1999.90;999.90;;;6.40;99.90;;;;;;5116859;27;20051;-90
2020/12/21 03:05:24;;;;;;;1999.90;999.90;;;6.40;99.90;;;;;;5116799;28;20051;-90
2020/12/21 03:07:51;;;;;;;1999.90;999.90;;;6.40;99.90;;;;;;5119512;27;20075;-91
2020/12/21 03:10:19;;;;;;;1999.90;999.90;;;6.40;99.90;;;;;;5133441;27;20055;-91
2020/12/21 03:12:45;;;;;;;1999.90;999.90;;;6.40;99.90;;;;;;5125168;27;20126;-92
2020/12/21 03:15:12;;;;;;;1999.90;999.90;;;6.30;99.90;;;;;;5117121;28;20085;-92
2020/12/21 03:17:40;;;;;;;1999.90;999.90;;;6.40;99.90;;;;;;5116657;28;20505;-92
2020/12/21 03:20:09;;;;;;;1999.90;999.90;;;6.40;99.90;;;;;;5116615;28;20047;-92
2020/12/21 03:22:36;;;;;;;1999.90;999.90;;;6.40;99.90;;;;;;5116788;28;20436;-91
2020/12/21 03:25:05;;;;;;;1999.90;999.90;;;6.30;99.90;;;;;;5116747;28;20067;-91
2020/12/21 03:27:35;;;;;;;1999.90;999.90;;;6.30;99.90;;;;;;5116774;28;20051;-92
2020/12/21 03:30:03;;;;;;;1999.90;999.90;;;6.30;99.90;;;;;;5117068;28;20109;-91
2020/12/21 03:32:30;;;;;;;1999.90;999.90;;;6.30;99.90;;;;;;5116667;28;20132;-91
2020/12/21 03:34:57;;;;;;;1999.90;999.90;;;6.30;99.90;;;;;;5116262;28;20055;-91
2020/12/21 03:37:24;;;;;;;1999.90;999.90;;;6.30;99.90;;;;;;5116741;28;20405;-91
2020/12/21 03:39:51;;;;;;;1999.90;999.90;;;6.30;99.90;;;;;;5116590;28;20153;-91
2020/12/21 03:42:18;;;;;;;1999.90;999.90;;;6.30;99.90;;;;;;5116530;28;20094;-92
2020/12/21 03:44:46;;;;;;;1999.90;999.90;;;6.30;99.90;;;;;;5116686;28;20072;-91
2020/12/21 03:47:13;;;;;;;1999.90;999.90;;;6.30;99.90;;;;;;5116248;28;20585;-92
2020/12/21 03:49:41;;;;;;;1999.90;999.90;;;6.30;99.90;;;;;;5116045;28;20050;-91
2020/12/21 03:52:07;;;;;;;1999.90;999.90;;;6.30;99.90;;;;;;5115833;28;20048;-91
2020/12/21 03:54:35;;;;;;;1999.90;999.90;;;6.30;99.90;;;;;;5116766;28;20430;-91
2020/12/21 03:57:02;;;;;;;1999.90;999.90;;;6.20;99.90;;;;;;5115747;28;20074;-91
2020/12/21 03:59:29;;;;;;;1999.90;999.90;;;6.20;99.90;;;;;;5115336;28;20498;-90
2020/12/21 04:01:57;;;;;;;1999.90;999.90;;;6.20;99.90;;;;;;5115858;28;20110;-90
2020/12/21 04:04:24;;;;;;;1999.90;999.90;;;6.20;99.90;;;;;;5115790;28;20051;-91
2020/12/21 04:06:51;;;;;;;1999.90;999.90;;;6.20;99.90;;;;;;5115797;28;20126;-90
2020/12/21 04:09:18;;;;;;;1999.90;999.90;;;6.20;99.90;;;;;;5115812;28;20107;-91
2020/12/21 04:11:45;;;;;;;1999.90;999.90;;;6.20;99.90;;;;;;5115504;28;20137;-91
2020/12/21 04:14:13;;;;;;;1999.90;999.90;;;6.20;99.90;;;;;;5115035;28;20094;-91
2020/12/21 04:16:40;;;;;;;1999.90;999.90;;;6.20;99.90;;;;;;5114812;28;20063;-91
2020/12/21 04:19:08;;;;;;;1999.90;999.90;;;6.20;99.90;;;;;;5114921;28;20071;-91
2020/12/21 04:21:35;;;;;;;1999.90;999.90;;;6.20;99.90;;;;;;5114288;28;20051;-91
2020/12/21 04:24:02;;;;;;;1999.90;999.90;;;6.20;99.90;;;;;;5114627;28;20478;-92
2020/12/21 04:26:29;;;;;;;1999.90;999.90;;;6.20;99.90;;;;;;5114875;28;20108;-92
2020/12/21 04:28:56;;;;;;;1999.90;999.90;;;6.20;99.90;;;;;;5114163;28;20047;-92
2020/12/21 04:31:23;;;;;;;1999.90;999.90;;;6.20;99.90;;;;;;5114900;28;20079;-91
2020/12/21 04:33:50;;;;;;;1999.90;999.90;;;6.20;99.90;;;;;;5114450;28;20079;-92
2020/12/21 04:36:18;;;;;;;1999.90;999.90;;;6.10;99.90;;;;;;5114864;28;20059;-92
2020/12/21 04:38:46;;;;;;;1999.90;999.90;;;6.10;99.90;;;;;;5114060;28;20158;-91
2020/12/21 04:41:13;;;;;;;1999.90;999.90;;;6.20;99.90;;;;;;5114149;28;20070;-91
2020/12/21 04:43:41;;;;;;;1999.90;999.90;;;6.10;99.90;;;;;;5114711;28;20054;-91
2020/12/21 04:46:09;;;;;;;1999.90;999.90;;;6.20;99.90;;;;;;5113067;28;20043;-91
2020/12/21 04:48:41;;;;;;;1999.90;999.90;;;6.10;99.90;;;;;;5114634;28;20059;-87
2020/12/21 04:51:09;;;;;;;1999.90;999.90;;;6.10;99.90;;;;;;5113750;28;20078;-87
2020/12/21 04:53:39;;;;;;;1999.90;999.90;;;6.10;99.90;;;;;;5114188;28;20075;-87
2020/12/21 04:56:07;;;;;;;1999.90;999.90;;;6.20;99.90;;;;;;5110448;28;20051;-87
2020/12/21 04:58:34;;;;;;;1999.90;999.90;;;6.10;99.90;;;;;;5110378;28;20047;-87
2020/12/21 05:01:01;;;;;;;1999.90;999.90;;;6.10;99.90;;;;;;5113657;28;20055;-87
2020/12/21 05:03:31;;;;;;;1999.90;999.90;;;6.10;99.90;;;;;;5113311;28;20475;-87
2020/12/21 05:06:06;;;;;;;1999.90;999.90;;;6.10;99.90;;;;;;5113855;28;20075;-87
2020/12/21 05:08:33;;;;;;;;;;;6.10;99.90;;;;;;5111182;28;20127;-87
2020/12/21 05:11:03;;;;;;;1999.90;999.90;;;6.10;99.90;;;;;;5114058;28;19924;-88
2020/12/21 05:13:32;;;;;;;1999.90;999.90;;;6.00;99.90;;;;;;5084208;28;840308;-87
2020/12/21 05:16:00;;;;;;;1999.90;999.90;;;6.10;99.90;;;;;;5114358;28;20566;-87
2020/12/21 05:18:28;;;;;;;1999.90;999.90;;;6.10;99.90;;;;;;5114094;28;20059;-87
2020/12/21 05:20:57;;;;;;;1999.90;999.90;;;6.00;99.90;;;;;;5114231;28;20127;-87
2020/12/21 05:23:24;;;;;;;1999.90;999.90;;;6.10;99.90;;;;;;5114811;28;20059;-87
2020/12/21 05:26:00;;;;;;;1999.90;999.90;;;6.10;99.90;;;;;;5114075;28;20146;-88
2020/12/21 05:28:30;;;;;;;1999.90;999.90;;;6.00;99.90;;;;;;5114291;28;20063;-87
2020/12/21 05:30:59;;;;;;;1999.90;999.90;;;6.10;99.90;;;;;;5113708;28;20162;-87
2020/12/21 05:33:26;;;;;;;1999.90;999.90;;;6.10;99.90;;;;;;5114120;28;20143;-87
2020/12/21 05:35:56;;;;;;;1999.90;999.90;;;6.10;99.90;;;;;;5100165;28;20040;-87
2020/12/21 05:38:28;;;;;;;1999.90;999.90;;;6.10;99.90;;;;;;5114726;28;20075;-88
2020/12/21 05:41:08;;;;;;;1999.90;999.90;;;6.10;99.90;;;;;;5114133;28;20063;-87
2020/12/21 05:43:37;;;;;;;1999.90;999.90;;;6.10;99.90;;;;;;5114141;28;20483;-87
2020/12/21 05:46:07;;;;;;;1999.90;999.90;;;6.10;99.90;;;;;;5113369;28;20135;-87
2020/12/21 05:48:36;;;;;;;1999.90;999.90;;;6.10;99.90;;;;;;5114554;28;20082;-88
2020/12/21 05:51:06;;;;;;;1999.90;999.90;;;6.10;99.90;;;;;;5114368;28;20088;-88
2020/12/21 05:53:38;;;;;;;1999.90;999.90;;;6.10;99.90;;;;;;5113376;28;20047;-91
2020/12/21 05:56:07;;;;;;;1999.90;999.90;;;6.10;99.90;;;;;;5113638;28;20039;-91
2020/12/21 05:58:38;;;;;;;1999.90;999.90;;;6.00;99.90;;;;;;5114049;28;20474;-91
2020/12/21 06:01:07;;;;;;;1999.90;999.90;;;6.00;99.90;;;;;;5111800;28;20048;-91
2020/12/21 06:03:46;;;;;;;1999.90;999.90;;;6.00;99.90;;;;;;5114890;28;20074;-91
2020/12/21 06:06:19;;;;;;;1999.90;999.90;;;6.00;99.90;;;;;;5111951;28;20455;-91
2020/12/21 06:08:47;;;;;;;1999.90;999.90;;;6.00;99.90;;;;;;5114125;28;20048;-92
2020/12/21 06:11:17;;;;;;;1999.90;999.90;;;6.00;99.90;;;;;;5113796;28;20611;-91
2020/12/21 06:13:50;;;;;;;1999.90;999.90;;;6.10;99.90;;;;;;5114561;28;20100;-92
2020/12/21 06:16:18;;;;;;;1999.90;999.90;;;6.00;99.90;;;;;;5114085;28;20063;-92
2020/12/21 06:18:59;;;;;;;1999.90;999.90;;;6.00;99.90;;;;;;5112448;28;20509;-92
2020/12/21 06:21:27;;;;;;;1999.90;999.90;;;6.10;99.90;;;;;;5113852;28;20184;-92
2020/12/21 06:23:54;;;;;;;1999.90;999.90;;;6.10;99.90;;;;;;5113673;28;20925;-92
2020/12/21 06:26:32;;;;;;;1999.90;999.90;;;6.10;99.90;;;;;;5110668;28;20044;-91
2020/12/21 06:29:05;;;;;;;1999.90;999.90;;;6.10;99.90;;;;;;5113603;28;20079;-91
2020/12/21 06:31:41;;;;;;;1999.90;999.90;;;6.10;99.90;;;;;;5113157;28;20059;-91
2020/12/21 06:34:09;;;;;;;1999.90;999.90;;;6.00;99.90;;;;;;5113339;28;20074;-91
2020/12/21 06:36:37;;;;;;;1999.90;999.90;;;6.10;99.90;;;;;;5114227;28;20084;-91
2020/12/21 06:39:06;;;;;;;1999.90;999.90;;;6.10;99.90;;;;;;5114146;28;20044;-91
2020/12/21 06:41:33;;;;;;;1999.90;999.90;;;6.10;99.90;;;;;;5113580;28;20093;-91
2020/12/21 06:44:06;;;;;;;1999.90;999.90;;;6.10;99.90;;;;;;5113646;28;20048;-91
2020/12/21 06:46:35;;;;;;;1999.90;999.90;;;6.10;99.90;;;;;;5114604;28;20048;-91
2020/12/21 06:49:12;;;;;;;1999.90;999.90;;;6.10;99.90;;;;;;5113783;28;20109;-91
2020/12/21 06:51:44;;;;;;;1999.90;999.90;;;6.10;99.90;;;;;;5102702;28;20499;-92
2020/12/21 06:54:11;;;;;;;1999.90;999.90;;;6.10;99.90;;;;;;5114441;28;20143;-91
2020/12/21 06:56:40;;;;;;;1999.90;999.90;;;6.20;99.90;;;;;;5113310;28;20109;-91
2020/12/21 06:59:13;;;;;;;1999.90;999.90;;;6.20;99.90;;;;;;5114881;28;20090;-91
2020/12/21 07:01:44;;;;;;;1999.90;999.90;;;6.20;99.90;;;;;;5113913;28;20043;-92
2020/12/21 07:04:25;;;;;;;1999.90;999.90;;;6.20;99.90;;;;;;5114226;28;20051;-92
2020/12/21 07:06:52;;;;;;;1999.90;999.90;;;6.20;99.90;;;;;;5113258;28;20082;-91
2020/12/21 07:09:23;;;;;;;1999.90;999.90;;;6.20;99.90;;;;;;5118689;28;20109;-92
2020/12/21 07:12:03;;;;;;;1999.90;999.90;;;6.20;99.90;;;;;;5119849;28;20051;-92
2020/12/21 07:14:38;;;;;;;1999.90;999.90;;;6.20;99.90;;;;;;5117617;28;20498;-91
2020/12/21 07:17:06;;;;;;;1999.90;999.90;;;6.20;99.90;;;;;;5117247;28;20048;-91
2020/12/21 07:19:34;;;;;;;1999.90;999.90;;;6.20;99.90;;;;;;5117784;28;20171;-91
2020/12/21 07:22:03;;;;;;;1999.90;999.90;;;6.20;99.90;;;;;;5116980;28;20047;-91
2020/12/21 07:24:34;;;;;;;1999.90;999.90;;;6.20;99.90;;;;;;5117523;28;20124;-91
2020/12/21 07:27:01;;;;;;;1999.90;999.90;;;6.20;99.90;;;;;;5117757;28;20068;-90
2020/12/21 07:29:33;;;;;;;1999.90;999.90;;;6.20;99.90;;;;;;5119224;28;20134;-91
2020/12/21 07:32:00;;;;;;;1999.90;999.90;;;6.20;99.90;;;;;;5118533;28;20451;-91
2020/12/21 07:34:29;;;;;;;1999.90;999.90;;;6.20;99.90;;;;;;5117901;28;20090;-91
2020/12/21 07:36:57;;;;;;;1999.90;999.90;;;6.20;99.90;;;;;;5117295;28;20100;-91
2020/12/21 07:39:24;;;;;;;1999.90;999.90;;;6.20;99.90;;;;;;5116963;28;20051;-91
2020/12/21 07:41:54;;;;;;;1999.90;999.90;;;6.20;99.90;;;;;;5116837;28;20875;-91
2020/12/21 07:44:25;;;;;;;1999.90;999.90;;;6.20;99.90;;;;;;5116866;28;20047;-91
2020/12/21 07:46:58;;;;;;;1999.90;999.90;;;6.30;99.90;;;;;;5117481;28;20048;-93
2020/12/21 07:49:26;;;;;;;1999.90;999.90;;;6.30;99.90;;;;;;5117659;28;20056;-92
2020/12/21 07:51:58;;;;;;;1999.90;999.90;;;6.30;99.90;;;;;;5116156;28;20086;-91
2020/12/21 07:54:27;;;;;;;1999.90;999.90;;;6.30;99.90;;;;;;5115458;28;20044;-91
2020/12/21 07:57:00;;;;;;;1999.90;999.90;;;6.30;99.90;;;;;;5116680;28;20081;-92
2020/12/21 07:59:27;;;;;;;1999.90;999.90;;;6.30;99.90;;;;;;5105069;28;20067;-91
2020/12/21 08:01:58;;;;;;;1999.90;999.90;;;6.30;99.90;;;;;;5115822;28;20096;-92
2020/12/21 08:04:26;;;;;;;1999.90;999.90;;;6.30;99.90;;;;;;5115808;28;20055;-92
2020/12/21 08:06:54;;;;;;;1999.90;999.90;;;6.40;99.90;;;;;;5116621;28;20063;-92
2020/12/21 08:09:28;;;;;;;1999.90;999.90;;;6.40;99.90;;;;;;5116269;28;20484;-93
2020/12/21 08:11:59;;;;;;;1999.90;999.90;;;6.40;99.90;;;;;;5121581;27;20083;-92
2020/12/21 08:14:29;;;;;;;1999.90;999.90;;;6.40;99.90;;;;;;5118749;27;20550;-92
2020/12/21 08:17:08;;;;;;;1999.90;999.90;;;6.40;99.90;;;;;;5118158;27;20070;-92
2020/12/21 08:19:48;;;;;;;1999.90;999.90;;;6.40;99.90;;;;;;5113906;27;20493;-92
2020/12/21 08:22:19;;;;;;;1999.90;999.90;;;6.50;99.90;;;;;;5118227;27;20084;-92
2020/12/21 08:24:46;;;;;;;1999.90;999.90;;;6.50;99.90;;;;;;5121125;27;20047;-92
2020/12/21 08:27:19;;;;;;;1999.90;999.90;;;6.50;99.90;;;;;;5118178;27;20043;-92
2020/12/21 08:29:47;;;;;;;1999.90;999.90;;;6.50;99.90;;;;;;5119600;27;20104;-92
2020/12/21 08:32:17;;;;;;;1999.90;999.90;;;6.50;99.90;;;;;;5120012;27;20043;-92
2020/12/21 08:34:44;;;;;;;1999.90;999.90;;;6.60;99.90;;;;;;5120084;27;20043;-88
2020/12/21 08:37:23;;;;;;;1999.90;999.90;;;6.60;99.90;;;;;;5114218;27;20070;-88
2020/12/21 08:39:53;;;;;;;1999.90;999.90;;;6.60;99.90;;;;;;5112370;28;20050;-89
2020/12/21 08:42:20;;;;;;;1999.90;999.90;;;6.60;99.90;;;;;;5115076;28;20075;-88
2020/12/21 08:44:50;;;;;;;1999.90;999.90;;;6.60;99.90;;;;;;5115356;28;20051;-88
2020/12/21 08:47:18;;;;;;;1999.90;999.90;;;6.60;99.90;;;;;;5116885;28;20050;-88
2020/12/21 08:49:45;;;;;;;1999.90;999.90;;;6.70;99.90;;;;;;5119524;27;20075;-88
2020/12/21 08:52:16;;;;;;;1999.90;999.90;;;6.70;99.90;;;;;;5117863;27;20099;-88
2020/12/21 08:54:43;;;;;;;1999.90;999.90;;;6.70;99.90;;;;;;5119586;27;20058;-88
2020/12/21 08:57:13;;;;;;;1999.90;999.90;;;6.80;99.90;;;;;;5112459;28;20099;-88
2020/12/21 08:59:40;;;;;;;1999.90;999.90;;;6.70;99.90;;;;;;5114499;28;20136;-88
2020/12/21 09:02:07;;;;;;;1999.90;999.90;;;6.80;99.90;;;;;;5117329;27;20086;-88
2020/12/21 09:04:35;;;;;;;1999.90;999.90;;;6.80;99.90;;;;;;5114785;27;20058;-88
2020/12/21 09:07:03;;;;;;;1999.90;999.90;;;6.90;99.90;;;;;;5116918;27;20051;-88
2020/12/21 09:09:30;;;;;;;1999.90;999.90;;;6.90;99.90;;;;;;5116530;27;20075;-91
2020/12/21 09:12:03;;;;;;;1999.90;999.90;;;6.90;99.90;;;;;;5117192;27;20052;-90
2020/12/21 09:14:30;;;;;;;1999.90;999.90;;;6.90;99.90;;;;;;5114661;28;20093;-92
2020/12/21 09:16:57;;;;;;;1999.90;999.90;;;6.90;99.90;;;;;;5117771;27;20806;-91
2020/12/21 09:19:25;;;;;;;1999.90;999.90;;;7.00;99.90;;;;;;5110555;27;20052;-91
2020/12/21 09:21:53;;;;;;;1999.90;999.90;;;7.00;99.90;;;;;;5114522;28;20868;-91
2020/12/21 09:24:20;;;;;;;1999.90;999.90;;;7.00;99.90;;;;;;5114735;28;20525;-91
2020/12/21 09:26:48;;;;;;;1999.90;999.90;;;7.10;99.90;;;;;;5111451;28;20084;-91
2020/12/21 09:29:15;;;;;;;1999.90;999.90;;;7.10;99.90;;;;;;5114038;28;20069;-91
2020/12/21 09:31:42;;;;;;;1999.90;999.90;;;7.10;99.90;;;;;;5114150;28;20055;-91
2020/12/21 09:34:09;;;;;;;1999.90;999.90;;;7.10;99.90;;;;;;5111796;28;20100;-89
2020/12/21 09:36:38;;;;;;;1999.90;999.90;;;7.10;99.90;;;;;;5110777;28;20044;-91
2020/12/21 09:39:18;;;;;;;1999.90;999.90;;;7.20;99.90;;;;;;5111452;28;20055;-90
2020/12/21 09:41:46;;;;;;;1999.90;999.90;;;7.20;99.90;;;;;;5112188;28;20482;-90
2020/12/21 09:44:13;;;;;;;1999.90;999.90;;;7.20;99.90;;;;;;5114580;28;20067;-90
2020/12/21 09:46:40;;;;;;;1999.90;999.90;;;7.30;99.90;;;;;;5113540;28;20251;-91
2020/12/21 09:49:10;;;;;;;1999.90;999.90;;;7.30;99.90;;;;;;5113418;28;20578;-90
2020/12/21 09:51:37;;;;;;;1999.90;999.90;;;7.30;99.90;;;;;;5113346;28;20112;-90
2020/12/21 09:54:05;;;;;;;1999.90;999.90;;;7.30;99.90;;;;;;5113335;28;20124;-90
2020/12/21 09:56:33;;;;;;;1999.90;999.90;;;7.30;99.90;;;;;;5113457;28;20055;-90
2020/12/21 09:59:02;;;;;;;1999.90;999.90;;;7.40;99.90;;;;;;5113575;28;20052;-90
2020/12/21 10:01:30;;;;;;;1999.90;999.90;;;7.40;99.90;;;;;;5113155;28;20139;-89
2020/12/21 10:04:00;;;;;;;1999.90;999.90;;;7.40;99.90;;;;;;5113859;28;20050;-90
2020/12/21 10:06:27;;;;;;;1999.90;999.90;;;7.40;99.90;;;;;;5113342;28;20075;-90
2020/12/21 10:08:54;;;;;;;1999.90;999.90;;;7.50;99.90;;;;;;5111651;28;20143;-90
2020/12/21 10:11:21;;;;;;;1999.90;999.90;;;7.50;99.90;;;;;;5113525;28;20071;-90
2020/12/21 10:13:49;;;;;;;1999.90;999.90;;;7.50;99.90;;;;;;5112242;28;20063;-91
2020/12/21 10:16:16;;;;;;;1999.90;999.90;;;7.60;99.90;;;;;;5112972;28;20051;-91
2020/12/21 10:18:43;;;;;;;1999.90;999.90;;;7.60;99.90;;;;;;5112168;28;20123;-91
2020/12/21 10:21:10;;;;;;;1999.90;999.90;;;7.60;99.90;;;;;;5100951;28;20337;-90
2020/12/21 10:23:37;;;;;;;1999.90;999.90;;;7.60;99.90;;;;;;5115423;28;20051;-91
2020/12/21 10:26:05;;;;;;;1999.90;999.90;;;7.70;99.90;;;;;;5112393;28;20043;-91
2020/12/21 10:28:32;;;;;;;1999.90;999.90;;;7.70;99.90;;;;;;5112814;28;20104;-90
2020/12/21 10:31:01;;;;;;;1999.90;999.90;;;7.80;99.90;;;;;;5106251;28;20056;-91
2020/12/21 10:33:29;;;;;;;1999.90;999.90;;;7.80;99.90;;;;;;5111567;28;20047;-90
2020/12/21 10:35:57;;;;;;;1999.90;999.90;;;7.80;99.90;;;;;;5112795;28;20130;-90
2020/12/21 10:38:25;;;;;;;1999.90;999.90;;;7.80;99.90;;;;;;5113037;28;20052;-91
2020/12/21 10:40:52;;;;;;;1999.90;999.90;;;7.80;99.90;;;;;;5115432;28;20073;-92
2020/12/21 10:43:23;;;;;;;1999.90;999.90;;;7.80;99.90;;;;;;5113948;28;20059;-91
2020/12/21 10:45:50;;;;;;;1999.90;999.90;;;7.90;99.90;;;;;;5116842;28;20055;-92
2020/12/21 10:48:21;;;;;;;1999.90;999.90;;;7.90;99.90;;;;;;5116979;28;20093;-91
2020/12/21 10:50:48;;;;;;;1999.90;999.90;;;7.80;99.90;;;;;;5117590;28;20047;-93
2020/12/21 10:53:16;;;;;;;1999.90;999.90;;;7.90;99.90;;;;;;5117174;28;20079;-91
2020/12/21 10:55:43;;;;;;;1999.90;999.90;;;7.90;99.90;;;;;;5116913;28;20177;-92
2020/12/21 10:58:12;;;;;;;1999.90;999.90;;;7.90;99.90;;;;;;5132893;27;20111;-93
2020/12/21 11:00:39;;;;;;;1999.90;999.90;;;7.90;99.90;;;;;;5116149;28;20075;-92
2020/12/21 11:03:07;;;;;;;1999.90;999.90;;;7.90;99.90;;;;;;5116866;28;20082;-92
2020/12/21 11:05:35;;;;;;;1999.90;999.90;;;7.90;99.90;;;;;;5114745;28;20414;-91
2020/12/21 11:08:02;;;;;;;1999.90;999.90;;;8.00;99.90;;;;;;5115853;28;20882;-91
2020/12/21 11:10:30;;;;;;;1999.90;999.90;;;8.00;99.90;;;;;;5115868;28;20100;-91
2020/12/21 11:12:57;;;;;;;1999.90;999.90;;;8.00;99.90;;;;;;5105695;28;20074;-92
2020/12/21 11:15:25;;;;;;;1999.90;999.90;;;8.00;99.90;;;;;;5116400;28;20043;-91
2020/12/21 11:17:52;;;;;;;1999.90;999.90;;;8.00;99.90;;;;;;5116403;28;20081;-91
2020/12/21 11:20:19;;;;;;;1999.90;999.90;;;8.10;99.90;;;;;;5116874;28;20059;-93
2020/12/21 11:22:47;;;;;;;1999.90;999.90;;;8.10;99.90;;;;;;5115545;28;20109;-92
2020/12/21 11:25:17;;;;;;;1999.90;999.90;;;8.10;99.90;;;;;;5116030;28;20093;-91
2020/12/21 11:27:45;;;;;;;1999.90;999.90;;;8.10;99.90;;;;;;5115327;28;20047;-92
2020/12/21 11:30:12;;;;;;;1999.90;999.90;;;8.20;99.90;;;;;;5114785;28;20051;-92
2020/12/21 11:32:39;;;;;;;1999.90;999.90;;;8.10;99.90;;;;;;5114283;28;20788;-92
2020/12/21 11:35:07;;;;;;;1999.90;999.90;;;8.10;99.90;;;;;;5116396;28;20071;-93
2020/12/21 11:37:35;;;;;;;1999.90;999.90;;;8.10;99.90;;;;;;5116518;27;20050;-94
2020/12/21 11:40:05;;;;;;;1999.90;999.90;;;8.20;99.90;;;;;;5107628;28;20132;-94
2020/12/21 11:42:32;;;;;;;1999.90;999.90;;;8.20;99.90;;;;;;5114814;28;20554;-93
2020/12/21 11:44:59;;;;;;;1999.90;999.90;;;8.20;99.90;;;;;;5116023;28;20461;-92
2020/12/21 11:47:29;;;;;;;1999.90;999.90;;;8.20;99.90;;;;;;5115773;28;20138;-91
2020/12/21 11:49:56;;;;;;;1999.90;999.90;;;8.20;99.90;;;;;;5113311;28;20100;-92
2020/12/21 11:52:23;;;;;;;1999.90;999.90;;;8.20;99.90;;;;;;5115613;28;20051;-92
2020/12/21 11:54:50;;;;;;;1999.90;999.90;;;8.20;99.90;;;;;;5114951;28;20048;-93
2020/12/21 11:57:21;;;;;;;1999.90;999.90;;;8.20;99.90;;;;;;5118867;27;20100;-93
2020/12/21 11:59:49;;;;;;;1999.90;999.90;;;8.20;99.90;;;;;;5118854;27;20089;-93
2020/12/21 12:02:16;;;;;;;1999.90;999.90;;;8.20;99.90;;;;;;5115503;28;20048;-94
2020/12/21 12:04:43;;;;;;;1999.90;999.90;;;8.30;99.90;;;;;;5114974;28;20105;-92
2020/12/21 12:07:10;;;;;;;1999.90;999.90;;;8.30;99.90;;;;;;5115098;28;20466;-93
2020/12/21 12:09:38;;;;;;;1999.90;999.90;;;8.20;99.90;;;;;;5115552;28;20051;-93
2020/12/21 12:12:07;;;;;;;1999.90;999.90;;;8.30;99.90;;;;;;5115196;28;20454;-93
2020/12/21 12:14:36;;;;;;;1999.90;999.90;;;8.30;99.90;;;;;;5112983;28;20504;-93
2020/12/21 12:17:03;;;;;;;1999.90;999.90;;;8.30;99.90;;;;;;5112416;28;20074;-93